sensor_id;sensor_type;location;lat;lon;timestamp;temperature;humidity
11647;DHT22;5880;52.342;9.662;2023-08-20T00:00:38;25.70;68.20
11647;DHT22;5880;52.342;9.662;2023-08-20T00:03:11;25.60;68.20
11647;DHT22;5880;52.342;9.662;2023-08-20T00:05:38;25.70;68.50
11647;DHT22;5880;52.342;9.662;2023-08-20T00:08:05;25.70;68.20
11647;DHT22;5880;52.342;9.662;2023-08-20T00:10:31;25.60;68.20
11647;DHT22;5880;52.342;9.662;2023-08-20T00:12:57;25.70;67.50
11647;DHT22;5880;52.342;9.662;2023-08-20T00:15:24;25.60;68.00
11647;DHT22;5880;52.342;9.662;2023-08-20T00:17:52;25.60;68.10
11647;DHT22;5880;52.342;9.662;2023-08-20T00:20:19;25.60;68.10
11647;DHT22;5880;52.342;9.662;2023-08-20T00:22:45;25.50;68.10
11647;DHT22;5880;52.342;9.662;2023-08-20T00:25:13;25.50;68.10
11647;DHT22;5880;52.342;9.662;2023-08-20T00:27:41;25.50;68.20
11647;DHT22;5880;52.342;9.662;2023-08-20T00:30:08;25.40;68.10
11647;DHT22;5880;52.342;9.662;2023-08-20T00:32:35;25.40;68.10
11647;DHT22;5880;52.342;9.662;2023-08-20T00:35:01;25.40;68.20
11647;DHT22;5880;52.342;9.662;2023-08-20T00:37:31;25.30;68.20
11647;DHT22;5880;52.342;9.662;2023-08-20T00:39:57;25.30;68.00
11647;DHT22;5880;52.342;9.662;2023-08-20T00:42:25;25.30;67.90
11647;DHT22;5880;52.342;9.662;2023-08-20T00:44:54;25.30;67.90
11647;DHT22;5880;52.342;9.662;2023-08-20T00:47:20;25.20;67.90
11647;DHT22;5880;52.342;9.662;2023-08-20T00:49:47;25.10;67.80
11647;DHT22;5880;52.342;9.662;2023-08-20T00:52:14;25.10;68.00
11647;DHT22;5880;52.342;9.662;2023-08-20T00:54:44;25.10;68.10
11647;DHT22;5880;52.342;9.662;2023-08-20T00:57:14;25.10;68.00
11647;DHT22;5880;52.342;9.662;2023-08-20T00:59:43;25.00;68.10
11647;DHT22;5880;52.342;9.662;2023-08-20T01:02:10;25.10;67.90
11647;DHT22;5880;52.342;9.662;2023-08-20T01:04:36;25.10;67.70
11647;DHT22;5880;52.342;9.662;2023-08-20T01:07:16;25.10;67.50
11647;DHT22;5880;52.342;9.662;2023-08-20T01:10:04;25.00;67.30
11647;DHT22;5880;52.342;9.662;2023-08-20T01:12:38;25.00;66.60
11647;DHT22;5880;52.342;9.662;2023-08-20T01:15:05;24.90;66.70
11647;DHT22;5880;52.342;9.662;2023-08-20T01:17:31;24.90;66.40
11647;DHT22;5880;52.342;9.662;2023-08-20T01:19:57;24.90;66.40
11647;DHT22;5880;52.342;9.662;2023-08-20T01:28:32;24.80;65.80
11647;DHT22;5880;52.342;9.662;2023-08-20T01:31:01;24.80;66.20
11647;DHT22;5880;52.342;9.662;2023-08-20T01:33:27;24.70;66.40
11647;DHT22;5880;52.342;9.662;2023-08-20T01:35:54;24.70;66.50
11647;DHT22;5880;52.342;9.662;2023-08-20T01:38:21;24.70;66.40
11647;DHT22;5880;52.342;9.662;2023-08-20T01:40:47;24.60;66.30
11647;DHT22;5880;52.342;9.662;2023-08-20T01:43:14;24.40;66.30
11647;DHT22;5880;52.342;9.662;2023-08-20T01:45:40;24.60;66.50
11647;DHT22;5880;52.342;9.662;2023-08-20T01:48:06;24.60;66.40
11647;DHT22;5880;52.342;9.662;2023-08-20T01:50:33;24.50;66.50
11647;DHT22;5880;52.342;9.662;2023-08-20T01:53:00;24.50;66.50
11647;DHT22;5880;52.342;9.662;2023-08-20T01:55:26;24.50;66.40
11647;DHT22;5880;52.342;9.662;2023-08-20T01:57:51;24.70;66.50
11647;DHT22;5880;52.342;9.662;2023-08-20T02:00:17;24.40;66.20
11647;DHT22;5880;52.342;9.662;2023-08-20T02:02:42;24.50;66.40
11647;DHT22;5880;52.342;9.662;2023-08-20T02:05:08;24.40;66.40
11647;DHT22;5880;52.342;9.662;2023-08-20T02:07:35;24.40;66.30
11647;DHT22;5880;52.342;9.662;2023-08-20T02:10:01;24.30;66.60
11647;DHT22;5880;52.342;9.662;2023-08-20T02:12:27;24.30;66.70
11647;DHT22;5880;52.342;9.662;2023-08-20T02:14:53;24.60;66.70
11647;DHT22;5880;52.342;9.662;2023-08-20T02:17:19;24.20;66.40
11647;DHT22;5880;52.342;9.662;2023-08-20T02:19:44;24.30;66.50
11647;DHT22;5880;52.342;9.662;2023-08-20T02:22:10;24.20;66.40
11647;DHT22;5880;52.342;9.662;2023-08-20T02:24:35;24.30;66.60
11647;DHT22;5880;52.342;9.662;2023-08-20T02:27:02;24.20;66.50
11647;DHT22;5880;52.342;9.662;2023-08-20T02:29:28;24.10;66.50
11647;DHT22;5880;52.342;9.662;2023-08-20T02:31:54;24.10;66.60
11647;DHT22;5880;52.342;9.662;2023-08-20T02:34:20;24.00;66.50
11647;DHT22;5880;52.342;9.662;2023-08-20T02:36:45;24.00;66.70
11647;DHT22;5880;52.342;9.662;2023-08-20T02:39:12;24.40;66.90
11647;DHT22;5880;52.342;9.662;2023-08-20T02:41:38;23.90;66.70
11647;DHT22;5880;52.342;9.662;2023-08-20T02:44:04;23.90;66.70
11647;DHT22;5880;52.342;9.662;2023-08-20T02:46:30;23.90;66.70
11647;DHT22;5880;52.342;9.662;2023-08-20T02:48:55;23.90;66.80
11647;DHT22;5880;52.342;9.662;2023-08-20T02:51:21;23.80;66.60
11647;DHT22;5880;52.342;9.662;2023-08-20T02:53:47;23.80;66.70
11647;DHT22;5880;52.342;9.662;2023-08-20T02:56:13;23.70;66.70
11647;DHT22;5880;52.342;9.662;2023-08-20T02:58:39;24.10;67.00
11647;DHT22;5880;52.342;9.662;2023-08-20T03:01:05;23.70;67.70
11647;DHT22;5880;52.342;9.662;2023-08-20T03:03:30;23.70;66.80
11647;DHT22;5880;52.342;9.662;2023-08-20T03:05:56;23.60;66.00
11647;DHT22;5880;52.342;9.662;2023-08-20T03:08:22;23.60;66.80
11647;DHT22;5880;52.342;9.662;2023-08-20T03:10:48;23.60;66.80
11647;DHT22;5880;52.342;9.662;2023-08-20T03:13:13;23.60;66.80
11647;DHT22;5880;52.342;9.662;2023-08-20T03:15:39;23.50;66.80
11647;DHT22;5880;52.342;9.662;2023-08-20T03:18:05;23.60;66.80
11647;DHT22;5880;52.342;9.662;2023-08-20T03:20:31;23.50;66.90
11647;DHT22;5880;52.342;9.662;2023-08-20T03:22:57;23.50;67.00
11647;DHT22;5880;52.342;9.662;2023-08-20T03:25:23;23.50;67.20
11647;DHT22;5880;52.342;9.662;2023-08-20T03:27:51;23.40;67.10
11647;DHT22;5880;52.342;9.662;2023-08-20T03:30:17;23.40;67.30
11647;DHT22;5880;52.342;9.662;2023-08-20T03:32:43;23.30;67.20
11647;DHT22;5880;52.342;9.662;2023-08-20T03:35:09;23.30;67.40
11647;DHT22;5880;52.342;9.662;2023-08-20T03:37:34;24.20;68.00
11647;DHT22;5880;52.342;9.662;2023-08-20T03:40:00;23.30;67.60
11647;DHT22;5880;52.342;9.662;2023-08-20T03:42:30;23.30;67.80
11647;DHT22;5880;52.342;9.662;2023-08-20T03:44:56;23.30;67.80
11647;DHT22;5880;52.342;9.662;2023-08-20T03:47:21;23.40;67.90
11647;DHT22;5880;52.342;9.662;2023-08-20T03:49:47;23.30;67.90
11647;DHT22;5880;52.342;9.662;2023-08-20T03:52:14;23.30;67.90
11647;DHT22;5880;52.342;9.662;2023-08-20T03:54:39;23.30;68.00
11647;DHT22;5880;52.342;9.662;2023-08-20T03:57:05;23.30;67.90
11647;DHT22;5880;52.342;9.662;2023-08-20T03:59:30;23.30;67.90
11647;DHT22;5880;52.342;9.662;2023-08-20T04:01:56;23.40;67.60
11647;DHT22;5880;52.342;9.662;2023-08-20T04:04:23;23.20;67.30
11647;DHT22;5880;52.342;9.662;2023-08-20T04:06:48;23.30;67.30
11647;DHT22;5880;52.342;9.662;2023-08-20T04:09:15;23.20;67.30
11647;DHT22;5880;52.342;9.662;2023-08-20T04:11:42;23.20;67.10
11647;DHT22;5880;52.342;9.662;2023-08-20T04:14:07;23.20;67.90
11647;DHT22;5880;52.342;9.662;2023-08-20T04:16:33;23.20;67.40
11647;DHT22;5880;52.342;9.662;2023-08-20T04:18:59;23.20;67.30
11647;DHT22;5880;52.342;9.662;2023-08-20T04:21:25;23.30;67.50
11647;DHT22;5880;52.342;9.662;2023-08-20T04:23:50;23.10;67.40
11647;DHT22;5880;52.342;9.662;2023-08-20T04:26:16;23.10;67.30
11647;DHT22;5880;52.342;9.662;2023-08-20T04:28:42;23.10;67.20
11647;DHT22;5880;52.342;9.662;2023-08-20T04:31:07;23.10;67.20
11647;DHT22;5880;52.342;9.662;2023-08-20T04:33:33;23.20;67.20
11647;DHT22;5880;52.342;9.662;2023-08-20T04:35:59;23.00;67.10
11647;DHT22;5880;52.342;9.662;2023-08-20T04:38:24;23.00;67.30
11647;DHT22;5880;52.342;9.662;2023-08-20T04:40:50;23.00;67.50
11647;DHT22;5880;52.342;9.662;2023-08-20T04:43:16;23.00;67.60
11647;DHT22;5880;52.342;9.662;2023-08-20T04:45:42;23.10;67.70
11647;DHT22;5880;52.342;9.662;2023-08-20T04:48:08;23.00;67.70
11647;DHT22;5880;52.342;9.662;2023-08-20T04:50:34;23.10;67.90
11647;DHT22;5880;52.342;9.662;2023-08-20T04:53:00;23.00;67.90
11647;DHT22;5880;52.342;9.662;2023-08-20T04:55:27;23.00;68.00
11647;DHT22;5880;52.342;9.662;2023-08-20T04:57:53;23.00;67.90
11647;DHT22;5880;52.342;9.662;2023-08-20T05:00:19;23.00;67.90
11647;DHT22;5880;52.342;9.662;2023-08-20T05:02:45;23.00;68.20
11647;DHT22;5880;52.342;9.662;2023-08-20T05:05:11;23.00;68.30
11647;DHT22;5880;52.342;9.662;2023-08-20T05:07:37;23.00;68.30
11647;DHT22;5880;52.342;9.662;2023-08-20T05:10:03;23.00;68.20
11647;DHT22;5880;52.342;9.662;2023-08-20T05:12:29;23.00;68.40
11647;DHT22;5880;52.342;9.662;2023-08-20T05:14:54;23.20;68.80
11647;DHT22;5880;52.342;9.662;2023-08-20T05:17:20;23.00;68.60
11647;DHT22;5880;52.342;9.662;2023-08-20T05:19:46;23.10;68.80
11647;DHT22;5880;52.342;9.662;2023-08-20T05:22:11;23.10;69.00
11647;DHT22;5880;52.342;9.662;2023-08-20T05:24:38;23.10;69.10
11647;DHT22;5880;52.342;9.662;2023-08-20T05:27:08;23.20;69.20
11647;DHT22;5880;52.342;9.662;2023-08-20T05:29:34;23.20;69.40
11647;DHT22;5880;52.342;9.662;2023-08-20T05:31:59;23.30;69.50
11647;DHT22;5880;52.342;9.662;2023-08-20T05:34:25;24.00;69.70
11647;DHT22;5880;52.342;9.662;2023-08-20T05:36:51;23.40;69.20
11647;DHT22;5880;52.342;9.662;2023-08-20T05:39:16;23.50;69.20
11647;DHT22;5880;52.342;9.662;2023-08-20T05:41:42;23.50;69.40
11647;DHT22;5880;52.342;9.662;2023-08-20T05:44:08;23.60;70.10
11647;DHT22;5880;52.342;9.662;2023-08-20T05:46:35;23.90;71.00
11647;DHT22;5880;52.342;9.662;2023-08-20T05:49:00;23.90;70.90
11647;DHT22;5880;52.342;9.662;2023-08-20T05:51:26;24.00;70.30
11647;DHT22;5880;52.342;9.662;2023-08-20T05:53:52;24.20;69.90
11647;DHT22;5880;52.342;9.662;2023-08-20T05:56:17;24.30;69.10
11647;DHT22;5880;52.342;9.662;2023-08-20T05:58:43;24.40;68.00
11647;DHT22;5880;52.342;9.662;2023-08-20T06:01:09;24.60;67.50
11647;DHT22;5880;52.342;9.662;2023-08-20T06:03:34;24.50;67.10
11647;DHT22;5880;52.342;9.662;2023-08-20T06:06:00;24.50;67.20
11647;DHT22;5880;52.342;9.662;2023-08-20T06:08:26;24.40;67.10
11647;DHT22;5880;52.342;9.662;2023-08-20T06:10:51;24.50;67.10
11647;DHT22;5880;52.342;9.662;2023-08-20T06:13:18;24.50;67.10
11647;DHT22;5880;52.342;9.662;2023-08-20T06:15:43;24.60;67.10
11647;DHT22;5880;52.342;9.662;2023-08-20T06:18:09;24.50;66.90
11647;DHT22;5880;52.342;9.662;2023-08-20T06:20:35;24.60;66.90
11647;DHT22;5880;52.342;9.662;2023-08-20T06:23:00;24.70;67.30
11647;DHT22;5880;52.342;9.662;2023-08-20T06:25:26;25.00;68.30
11647;DHT22;5880;52.342;9.662;2023-08-20T06:27:52;24.90;68.80
11647;DHT22;5880;52.342;9.662;2023-08-20T06:30:17;25.00;68.40
11647;DHT22;5880;52.342;9.662;2023-08-20T06:32:44;25.20;67.50
11647;DHT22;5880;52.342;9.662;2023-08-20T06:35:10;25.30;66.70
11647;DHT22;5880;52.342;9.662;2023-08-20T06:37:38;25.50;66.50
11647;DHT22;5880;52.342;9.662;2023-08-20T06:40:06;25.50;65.60
11647;DHT22;5880;52.342;9.662;2023-08-20T06:42:32;25.50;65.20
11647;DHT22;5880;52.342;9.662;2023-08-20T06:44:58;25.60;65.10
11647;DHT22;5880;52.342;9.662;2023-08-20T06:47:24;25.70;65.10
11647;DHT22;5880;52.342;9.662;2023-08-20T06:49:50;25.80;65.40
11647;DHT22;5880;52.342;9.662;2023-08-20T06:52:16;25.90;66.40
11647;DHT22;5880;52.342;9.662;2023-08-20T06:54:43;26.10;67.30
11647;DHT22;5880;52.342;9.662;2023-08-20T06:57:10;26.40;67.80
11647;DHT22;5880;52.342;9.662;2023-08-20T06:59:35;26.70;68.30
11647;DHT22;5880;52.342;9.662;2023-08-20T07:02:01;27.10;68.10
11647;DHT22;5880;52.342;9.662;2023-08-20T07:04:28;27.40;67.40
11647;DHT22;5880;52.342;9.662;2023-08-20T07:06:54;27.80;66.50
11647;DHT22;5880;52.342;9.662;2023-08-20T07:09:20;28.20;66.10
11647;DHT22;5880;52.342;9.662;2023-08-20T07:11:46;28.50;66.20
11647;DHT22;5880;52.342;9.662;2023-08-20T07:14:11;28.90;66.10
11647;DHT22;5880;52.342;9.662;2023-08-20T07:16:37;29.40;66.70
11647;DHT22;5880;52.342;9.662;2023-08-20T07:19:03;29.80;65.80
11647;DHT22;5880;52.342;9.662;2023-08-20T07:21:29;30.20;64.20
11647;DHT22;5880;52.342;9.662;2023-08-20T07:23:54;30.50;62.80
11647;DHT22;5880;52.342;9.662;2023-08-20T07:26:20;30.80;61.60
11647;DHT22;5880;52.342;9.662;2023-08-20T07:28:45;31.00;62.00
11647;DHT22;5880;52.342;9.662;2023-08-20T07:31:24;31.20;60.30
11647;DHT22;5880;52.342;9.662;2023-08-20T07:33:59;31.40;59.70
11647;DHT22;5880;52.342;9.662;2023-08-20T07:36:26;31.50;59.20
11647;DHT22;5880;52.342;9.662;2023-08-20T07:38:53;31.70;58.40
11647;DHT22;5880;52.342;9.662;2023-08-20T07:41:20;31.70;57.00
11647;DHT22;5880;52.342;9.662;2023-08-20T07:43:47;31.70;56.40
11647;DHT22;5880;52.342;9.662;2023-08-20T07:46:14;31.70;55.20
11647;DHT22;5880;52.342;9.662;2023-08-20T07:48:41;31.60;54.90
11647;DHT22;5880;52.342;9.662;2023-08-20T07:51:07;31.60;55.30
11647;DHT22;5880;52.342;9.662;2023-08-20T07:53:33;31.60;55.90
11647;DHT22;5880;52.342;9.662;2023-08-20T07:56:00;31.50;55.40
11647;DHT22;5880;52.342;9.662;2023-08-20T07:58:26;31.50;55.70
11647;DHT22;5880;52.342;9.662;2023-08-20T08:00:53;31.40;54.70
11647;DHT22;5880;52.342;9.662;2023-08-20T08:03:19;31.40;54.20
11647;DHT22;5880;52.342;9.662;2023-08-20T08:05:49;31.20;53.30
11647;DHT22;5880;52.342;9.662;2023-08-20T08:08:16;31.10;52.70
11647;DHT22;5880;52.342;9.662;2023-08-20T08:10:46;30.90;52.50
11647;DHT22;5880;52.342;9.662;2023-08-20T08:13:14;30.70;52.20
11647;DHT22;5880;52.342;9.662;2023-08-20T08:15:41;30.50;52.40
11647;DHT22;5880;52.342;9.662;2023-08-20T08:18:07;30.30;52.80
11647;DHT22;5880;52.342;9.662;2023-08-20T08:20:33;30.10;53.10
11647;DHT22;5880;52.342;9.662;2023-08-20T08:22:59;29.90;52.10
11647;DHT22;5880;52.342;9.662;2023-08-20T08:25:26;29.80;52.30
11647;DHT22;5880;52.342;9.662;2023-08-20T08:27:52;29.60;52.20
11647;DHT22;5880;52.342;9.662;2023-08-20T08:30:18;29.40;52.50
11647;DHT22;5880;52.342;9.662;2023-08-20T08:32:44;29.20;52.70
11647;DHT22;5880;52.342;9.662;2023-08-20T08:35:09;29.10;54.00
11647;DHT22;5880;52.342;9.662;2023-08-20T08:37:35;29.00;53.70
11647;DHT22;5880;52.342;9.662;2023-08-20T08:40:02;28.90;54.10
11647;DHT22;5880;52.342;9.662;2023-08-20T08:42:31;28.90;53.30
11647;DHT22;5880;52.342;9.662;2023-08-20T08:44:59;28.80;53.40
11647;DHT22;5880;52.342;9.662;2023-08-20T08:47:26;28.80;53.10
11647;DHT22;5880;52.342;9.662;2023-08-20T08:49:54;28.70;53.40
11647;DHT22;5880;52.342;9.662;2023-08-20T08:52:25;28.70;54.20
11647;DHT22;5880;52.342;9.662;2023-08-20T08:54:52;28.60;53.70
11647;DHT22;5880;52.342;9.662;2023-08-20T08:57:18;28.60;53.60
11647;DHT22;5880;52.342;9.662;2023-08-20T08:59:44;28.50;53.30
11647;DHT22;5880;52.342;9.662;2023-08-20T09:02:11;28.50;53.80
11647;DHT22;5880;52.342;9.662;2023-08-20T09:04:42;28.60;54.40
11647;DHT22;5880;52.342;9.662;2023-08-20T09:07:15;28.70;54.10
11647;DHT22;5880;52.342;9.662;2023-08-20T09:09:44;28.60;53.80
11647;DHT22;5880;52.342;9.662;2023-08-20T09:12:15;28.60;55.00
11647;DHT22;5880;52.342;9.662;2023-08-20T09:14:46;28.60;53.90
11647;DHT22;5880;52.342;9.662;2023-08-20T09:17:14;28.60;53.20
11647;DHT22;5880;52.342;9.662;2023-08-20T09:19:42;28.60;53.70
11647;DHT22;5880;52.342;9.662;2023-08-20T09:22:12;28.60;53.50
11647;DHT22;5880;52.342;9.662;2023-08-20T09:24:52;28.60;53.40
11647;DHT22;5880;52.342;9.662;2023-08-20T09:27:20;28.60;52.40
11647;DHT22;5880;52.342;9.662;2023-08-20T09:29:48;28.60;53.40
11647;DHT22;5880;52.342;9.662;2023-08-20T09:32:25;28.70;52.50
11647;DHT22;5880;52.342;9.662;2023-08-20T09:34:55;28.60;52.20
11647;DHT22;5880;52.342;9.662;2023-08-20T09:37:22;28.70;52.50
11647;DHT22;5880;52.342;9.662;2023-08-20T09:39:49;28.60;52.20
11647;DHT22;5880;52.342;9.662;2023-08-20T09:42:16;28.60;52.30
11647;DHT22;5880;52.342;9.662;2023-08-20T09:44:43;28.70;52.30
11647;DHT22;5880;52.342;9.662;2023-08-20T09:47:12;28.70;53.20
11647;DHT22;5880;52.342;9.662;2023-08-20T09:49:39;28.80;52.00
11647;DHT22;5880;52.342;9.662;2023-08-20T09:52:11;28.80;51.90
11647;DHT22;5880;52.342;9.662;2023-08-20T09:55:00;28.80;51.40
11647;DHT22;5880;52.342;9.662;2023-08-20T09:57:40;28.80;50.00
11647;DHT22;5880;52.342;9.662;2023-08-20T10:00:08;28.90;51.10
11647;DHT22;5880;52.342;9.662;2023-08-20T10:02:35;28.90;51.30
11647;DHT22;5880;52.342;9.662;2023-08-20T10:05:05;28.90;51.10
11647;DHT22;5880;52.342;9.662;2023-08-20T10:07:31;28.90;50.70
11647;DHT22;5880;52.342;9.662;2023-08-20T10:09:59;28.90;50.40
11647;DHT22;5880;52.342;9.662;2023-08-20T10:12:30;29.00;51.30
11647;DHT22;5880;52.342;9.662;2023-08-20T10:14:57;28.90;49.70
11647;DHT22;5880;52.342;9.662;2023-08-20T10:17:24;28.90;50.30
11647;DHT22;5880;52.342;9.662;2023-08-20T10:19:53;28.90;50.40
11647;DHT22;5880;52.342;9.662;2023-08-20T10:22:20;29.00;50.30
11647;DHT22;5880;52.342;9.662;2023-08-20T10:24:52;28.90;50.40
11647;DHT22;5880;52.342;9.662;2023-08-20T10:27:31;29.00;51.00
11647;DHT22;5880;52.342;9.662;2023-08-20T10:29:59;29.10;51.40
11647;DHT22;5880;52.342;9.662;2023-08-20T10:32:54;29.10;52.10
11647;DHT22;5880;52.342;9.662;2023-08-20T10:38:11;29.10;52.10
11647;DHT22;5880;52.342;9.662;2023-08-20T10:46:06;29.20;49.60
11647;DHT22;5880;52.342;9.662;2023-08-20T10:48:33;29.20;50.00
11647;DHT22;5880;52.342;9.662;2023-08-20T10:51:11;29.30;50.40
11647;DHT22;5880;52.342;9.662;2023-08-20T10:53:42;29.40;51.40
11647;DHT22;5880;52.342;9.662;2023-08-20T10:56:46;29.30;50.30
11647;DHT22;5880;52.342;9.662;2023-08-20T10:59:22;29.40;50.20
11647;DHT22;5880;52.342;9.662;2023-08-20T11:01:52;29.40;49.90
11647;DHT22;5880;52.342;9.662;2023-08-20T11:04:21;29.40;49.90
11647;DHT22;5880;52.342;9.662;2023-08-20T11:06:56;29.30;50.30
11647;DHT22;5880;52.342;9.662;2023-08-20T11:09:24;29.40;50.40
11647;DHT22;5880;52.342;9.662;2023-08-20T11:11:51;29.40;50.60
11647;DHT22;5880;52.342;9.662;2023-08-20T11:14:19;29.50;50.60
11647;DHT22;5880;52.342;9.662;2023-08-20T11:16:47;29.60;51.00
11647;DHT22;5880;52.342;9.662;2023-08-20T11:19:23;29.60;49.30
11647;DHT22;5880;52.342;9.662;2023-08-20T11:21:49;29.70;48.80
11647;DHT22;5880;52.342;9.662;2023-08-20T11:24:16;29.80;48.80
11647;DHT22;5880;52.342;9.662;2023-08-20T11:26:43;29.80;49.00
11647;DHT22;5880;52.342;9.662;2023-08-20T11:29:12;29.90;48.40
11647;DHT22;5880;52.342;9.662;2023-08-20T11:31:41;29.90;49.40
11647;DHT22;5880;52.342;9.662;2023-08-20T11:34:07;30.00;49.20
11647;DHT22;5880;52.342;9.662;2023-08-20T11:36:36;30.00;49.90
11647;DHT22;5880;52.342;9.662;2023-08-20T11:39:07;30.10;50.70
11647;DHT22;5880;52.342;9.662;2023-08-20T11:41:36;30.00;49.70
11647;DHT22;5880;52.342;9.662;2023-08-20T11:44:02;30.10;50.00
11647;DHT22;5880;52.342;9.662;2023-08-20T11:46:28;30.00;50.10
11647;DHT22;5880;52.342;9.662;2023-08-20T11:49:09;30.00;50.20
11647;DHT22;5880;52.342;9.662;2023-08-20T11:51:43;29.90;48.60
11647;DHT22;5880;52.342;9.662;2023-08-20T11:54:14;29.80;48.40
11647;DHT22;5880;52.342;9.662;2023-08-20T11:56:51;29.80;47.90
11647;DHT22;5880;52.342;9.662;2023-08-20T11:59:20;29.80;47.20
11647;DHT22;5880;52.342;9.662;2023-08-20T12:01:59;29.80;47.60
11647;DHT22;5880;52.342;9.662;2023-08-20T12:04:28;29.80;47.30
11647;DHT22;5880;52.342;9.662;2023-08-20T12:07:12;29.90;47.90
11647;DHT22;5880;52.342;9.662;2023-08-20T12:09:39;29.90;47.30
11647;DHT22;5880;52.342;9.662;2023-08-20T12:12:07;30.00;47.90
11647;DHT22;5880;52.342;9.662;2023-08-20T12:14:34;30.10;48.20
11647;DHT22;5880;52.342;9.662;2023-08-20T12:17:00;30.10;48.50
11647;DHT22;5880;52.342;9.662;2023-08-20T12:19:26;30.10;47.90
11647;DHT22;5880;52.342;9.662;2023-08-20T12:21:52;30.20;47.60
11647;DHT22;5880;52.342;9.662;2023-08-20T12:24:18;30.30;47.30
11647;DHT22;5880;52.342;9.662;2023-08-20T12:26:46;30.30;47.10
11647;DHT22;5880;52.342;9.662;2023-08-20T12:29:13;30.30;46.60
11647;DHT22;5880;52.342;9.662;2023-08-20T12:31:41;30.30;46.60
11647;DHT22;5880;52.342;9.662;2023-08-20T12:34:07;30.30;47.10
11647;DHT22;5880;52.342;9.662;2023-08-20T12:36:33;30.40;47.00
11647;DHT22;5880;52.342;9.662;2023-08-20T12:38:59;30.40;46.60
11647;DHT22;5880;52.342;9.662;2023-08-20T12:41:25;30.50;47.80
11647;DHT22;5880;52.342;9.662;2023-08-20T12:43:51;30.50;47.90
11647;DHT22;5880;52.342;9.662;2023-08-20T12:46:17;30.60;48.20
11647;DHT22;5880;52.342;9.662;2023-08-20T12:48:43;30.60;47.00
11647;DHT22;5880;52.342;9.662;2023-08-20T12:51:08;30.80;48.00
11647;DHT22;5880;52.342;9.662;2023-08-20T12:53:37;30.70;48.80
11647;DHT22;5880;52.342;9.662;2023-08-20T12:56:03;30.70;48.80
11647;DHT22;5880;52.342;9.662;2023-08-20T12:58:29;30.70;47.80
11647;DHT22;5880;52.342;9.662;2023-08-20T13:00:54;30.70;48.10
11647;DHT22;5880;52.342;9.662;2023-08-20T13:03:20;30.80;48.10
11647;DHT22;5880;52.342;9.662;2023-08-20T13:05:47;30.80;48.00
11647;DHT22;5880;52.342;9.662;2023-08-20T13:08:13;30.80;48.10
11647;DHT22;5880;52.342;9.662;2023-08-20T13:10:40;30.80;48.10
11647;DHT22;5880;52.342;9.662;2023-08-20T13:13:09;30.90;48.10
11647;DHT22;5880;52.342;9.662;2023-08-20T13:15:36;30.90;48.30
11647;DHT22;5880;52.342;9.662;2023-08-20T13:18:02;30.90;48.30
11647;DHT22;5880;52.342;9.662;2023-08-20T13:20:29;30.90;48.40
11647;DHT22;5880;52.342;9.662;2023-08-20T13:22:55;30.90;47.20
11647;DHT22;5880;52.342;9.662;2023-08-20T13:25:21;30.90;46.80
11647;DHT22;5880;52.342;9.662;2023-08-20T13:27:47;30.90;47.10
11647;DHT22;5880;52.342;9.662;2023-08-20T13:30:13;30.90;46.90
11647;DHT22;5880;52.342;9.662;2023-08-20T13:32:39;30.90;47.10
11647;DHT22;5880;52.342;9.662;2023-08-20T13:35:05;31.00;47.00
11647;DHT22;5880;52.342;9.662;2023-08-20T13:37:32;30.90;46.60
11647;DHT22;5880;52.342;9.662;2023-08-20T13:39:59;30.80;47.70
11647;DHT22;5880;52.342;9.662;2023-08-20T13:42:25;30.80;48.10
11647;DHT22;5880;52.342;9.662;2023-08-20T13:44:51;30.80;48.50
11647;DHT22;5880;52.342;9.662;2023-08-20T13:47:16;30.80;47.20
11647;DHT22;5880;52.342;9.662;2023-08-20T13:49:42;30.80;47.40
11647;DHT22;5880;52.342;9.662;2023-08-20T13:52:09;30.90;47.40
11647;DHT22;5880;52.342;9.662;2023-08-20T13:54:36;30.80;46.90
11647;DHT22;5880;52.342;9.662;2023-08-20T13:57:03;30.80;46.60
11647;DHT22;5880;52.342;9.662;2023-08-20T13:59:29;30.80;46.60
11647;DHT22;5880;52.342;9.662;2023-08-20T14:01:55;30.80;47.40
11647;DHT22;5880;52.342;9.662;2023-08-20T14:04:21;30.80;47.70
11647;DHT22;5880;52.342;9.662;2023-08-20T14:06:47;30.90;46.60
11647;DHT22;5880;52.342;9.662;2023-08-20T14:09:13;30.80;45.40
11647;DHT22;5880;52.342;9.662;2023-08-20T14:11:39;30.90;47.30
11647;DHT22;5880;52.342;9.662;2023-08-20T14:14:05;30.80;47.40
11647;DHT22;5880;52.342;9.662;2023-08-20T14:16:31;30.80;46.60
11647;DHT22;5880;52.342;9.662;2023-08-20T14:18:57;30.70;47.40
11647;DHT22;5880;52.342;9.662;2023-08-20T14:21:22;30.80;46.80
11647;DHT22;5880;52.342;9.662;2023-08-20T14:23:48;30.70;46.40
11647;DHT22;5880;52.342;9.662;2023-08-20T14:26:14;30.70;47.90
11647;DHT22;5880;52.342;9.662;2023-08-20T14:28:41;30.60;47.80
11647;DHT22;5880;52.342;9.662;2023-08-20T14:31:09;30.50;47.80
11647;DHT22;5880;52.342;9.662;2023-08-20T14:33:35;30.50;46.70
11647;DHT22;5880;52.342;9.662;2023-08-20T14:36:00;30.50;46.70
11647;DHT22;5880;52.342;9.662;2023-08-20T14:38:28;30.40;46.80
11647;DHT22;5880;52.342;9.662;2023-08-20T14:41:02;30.50;46.50
11647;DHT22;5880;52.342;9.662;2023-08-20T14:43:28;30.40;45.80
11647;DHT22;5880;52.342;9.662;2023-08-20T14:45:55;30.40;47.70
11647;DHT22;5880;52.342;9.662;2023-08-20T14:48:21;30.40;48.10
11647;DHT22;5880;52.342;9.662;2023-08-20T14:50:48;30.40;47.10
11647;DHT22;5880;52.342;9.662;2023-08-20T14:53:14;30.40;47.60
11647;DHT22;5880;52.342;9.662;2023-08-20T14:55:40;30.30;47.40
11647;DHT22;5880;52.342;9.662;2023-08-20T14:58:06;30.30;47.20
11647;DHT22;5880;52.342;9.662;2023-08-20T15:00:34;30.30;47.10
11647;DHT22;5880;52.342;9.662;2023-08-20T15:03:00;30.30;48.80
11647;DHT22;5880;52.342;9.662;2023-08-20T15:05:26;30.20;48.30
11647;DHT22;5880;52.342;9.662;2023-08-20T15:07:53;30.30;47.20
11647;DHT22;5880;52.342;9.662;2023-08-20T15:10:18;30.30;47.00
11647;DHT22;5880;52.342;9.662;2023-08-20T15:12:44;30.30;46.50
11647;DHT22;5880;52.342;9.662;2023-08-20T15:15:10;30.20;46.90
11647;DHT22;5880;52.342;9.662;2023-08-20T15:17:37;30.30;46.40
11647;DHT22;5880;52.342;9.662;2023-08-20T15:20:04;30.20;47.10
11647;DHT22;5880;52.342;9.662;2023-08-20T15:22:37;30.20;47.70
11647;DHT22;5880;52.342;9.662;2023-08-20T15:25:03;30.20;48.30
11647;DHT22;5880;52.342;9.662;2023-08-20T15:27:32;30.20;47.90
11647;DHT22;5880;52.342;9.662;2023-08-20T15:30:00;30.20;47.80
11647;DHT22;5880;52.342;9.662;2023-08-20T15:32:26;30.10;48.10
11647;DHT22;5880;52.342;9.662;2023-08-20T15:34:53;30.10;47.30
11647;DHT22;5880;52.342;9.662;2023-08-20T15:37:19;30.10;47.40
11647;DHT22;5880;52.342;9.662;2023-08-20T15:39:45;30.10;47.00
11647;DHT22;5880;52.342;9.662;2023-08-20T15:42:11;30.20;47.10
11647;DHT22;5880;52.342;9.662;2023-08-20T15:44:38;30.20;48.00
11647;DHT22;5880;52.342;9.662;2023-08-20T15:47:05;30.20;48.00
11647;DHT22;5880;52.342;9.662;2023-08-20T15:49:32;30.20;47.00
11647;DHT22;5880;52.342;9.662;2023-08-20T15:51:58;30.20;47.50
11647;DHT22;5880;52.342;9.662;2023-08-20T15:54:24;30.20;47.90
11647;DHT22;5880;52.342;9.662;2023-08-20T15:56:51;30.20;48.80
11647;DHT22;5880;52.342;9.662;2023-08-20T15:59:17;30.20;47.30